createdAt,value
2023-05-21T00:00:39.911Z,122.63
2023-05-21T00:01:45.908Z,138.18
2023-05-21T00:02:48.132Z,160.75
2023-05-21T00:03:53.063Z,140.75
2023-05-21T00:04:55.217Z,138.40
2023-05-21T00:06:01.810Z,218.95
2023-05-21T00:07:04.432Z,114.95
2023-05-21T00:08:09.425Z,143.70
2023-05-21T00:09:13.233Z,180.57
2023-05-21T00:10:17.965Z,134.68
2023-05-21T00:11:20.292Z,146.57
2023-05-21T00:12:25.013Z,197.57
2023-05-21T00:13:29.811Z,148.18
2023-05-21T00:14:34.562Z,156.23
2023-05-21T00:15:36.845Z,165.45
2023-05-21T00:16:41.847Z,251.93
2023-05-21T00:17:44.295Z,144.00
2023-05-21T00:18:49.926Z,134.80
2023-05-21T00:19:52.249Z,133.85
2023-05-21T00:20:58.008Z,125.32
2023-05-21T00:22:02.497Z,129.63
2023-05-21T00:23:07.928Z,137.18
2023-05-21T00:24:10.114Z,132.57
2023-05-21T00:25:15.178Z,142.05
2023-05-21T00:26:17.280Z,155.65
2023-05-21T00:27:22.006Z,155.60
2023-05-21T00:28:24.085Z,202.55
2023-05-21T00:29:31.579Z,203.07
2023-05-21T00:30:33.742Z,166.68
2023-05-21T00:31:38.520Z,167.23
2023-05-21T00:32:40.686Z,186.15
2023-05-21T00:33:45.440Z,148.05
2023-05-21T00:34:48.433Z,168.63
2023-05-21T00:35:53.148Z,172.05
2023-05-21T00:36:56.054Z,158.90
2023-05-21T00:38:01.761Z,207.70
2023-05-21T00:39:04.863Z,176.13
2023-05-21T00:40:11.810Z,151.02
2023-05-21T00:41:14.196Z,230.45
2023-05-21T00:42:19.377Z,207.68
2023-05-21T00:43:26.307Z,210.43
2023-05-21T00:44:34.556Z,214.60
2023-05-21T00:45:37.554Z,233.13
2023-05-21T00:46:44.319Z,223.93
2023-05-21T00:47:48.659Z,182.88
2023-05-21T00:48:54.003Z,156.05
2023-05-21T00:49:56.303Z,211.18
2023-05-21T00:51:01.031Z,174.18
2023-05-21T00:52:03.267Z,188.40
2023-05-21T00:53:09.761Z,158.27
2023-05-21T00:54:12.291Z,165.15
2023-05-21T00:55:17.370Z,182.75
2023-05-21T00:56:20.462Z,184.35
2023-05-21T00:57:28.289Z,232.43
2023-05-21T00:58:31.259Z,217.93
2023-05-21T00:59:38.579Z,199.80
2023-05-21T01:00:40.877Z,157.77
2023-05-21T01:01:46.537Z,165.82
2023-05-21T01:02:50.088Z,163.68
2023-05-21T01:03:57.924Z,164.13
2023-05-21T01:05:00.612Z,189.48
2023-05-21T01:06:05.395Z,160.70
2023-05-21T01:07:09.750Z,175.63
2023-05-21T01:08:15.188Z,207.57
2023-05-21T01:09:18.115Z,185.63
2023-05-21T01:10:22.906Z,188.15
2023-05-21T01:11:34.008Z,222.13
2023-05-21T01:12:45.284Z,190.75
2023-05-21T01:13:48.704Z,184.15
2023-05-21T01:14:57.821Z,209.27
2023-05-21T01:16:01.509Z,209.80
2023-05-21T01:17:11.965Z,255.05
2023-05-21T01:18:14.657Z,203.52
2023-05-21T01:19:22.475Z,222.93
2023-05-21T01:20:25.103Z,239.23
2023-05-21T01:21:32.346Z,213.52
2023-05-21T01:22:36.299Z,242.82
2023-05-21T01:23:43.731Z,198.73
2023-05-21T01:24:48.417Z,222.05
2023-05-21T01:25:53.145Z,196.90
2023-05-21T01:26:55.511Z,178.43
2023-05-21T01:28:00.224Z,175.48
2023-05-21T01:29:02.672Z,165.63
2023-05-21T01:30:08.641Z,234.23
2023-05-21T01:31:23.139Z,186.80
2023-05-21T01:32:35.749Z,233.18
2023-05-21T01:33:45.721Z,258.08
2023-05-21T01:34:59.346Z,260.13
2023-05-21T01:36:06.271Z,217.82
2023-05-21T01:37:19.885Z,523.65
2023-05-21T01:38:27.625Z,272.70
2023-05-21T01:39:38.724Z,221.60
2023-05-21T01:40:45.914Z,236.85
2023-05-21T01:41:52.586Z,203.38
2023-05-21T01:42:54.898Z,219.57
2023-05-21T01:44:00.232Z,262.63
2023-05-21T01:45:06.438Z,199.77
2023-05-21T01:46:13.722Z,208.70
2023-05-21T01:47:18.209Z,205.50
2023-05-21T01:48:23.144Z,350.90
2023-05-21T01:49:25.714Z,275.73
2023-05-21T01:50:32.077Z,291.52
2023-05-21T01:51:35.012Z,244.73
2023-05-21T01:52:40.150Z,274.08
2023-05-21T01:53:44.913Z,251.25
2023-05-21T01:54:51.443Z,193.07
2023-05-21T01:55:56.348Z,207.98
2023-05-21T01:56:58.465Z,270.70
2023-05-21T01:58:03.529Z,208.18
2023-05-21T01:59:06.091Z,231.38
2023-05-21T02:00:12.518Z,201.90
2023-05-21T02:01:14.630Z,187.45
2023-05-21T02:02:19.318Z,261.45
2023-05-21T02:03:22.126Z,216.23
2023-05-21T02:04:26.836Z,241.13
2023-05-21T02:05:29.311Z,434.38
2023-05-21T02:06:36.120Z,224.95
2023-05-21T02:07:38.894Z,264.98
2023-05-21T02:08:45.772Z,178.25
2023-05-21T02:09:50.602Z,197.88
2023-05-21T02:10:55.265Z,187.57
2023-05-21T02:11:58.449Z,211.05
2023-05-21T02:13:03.573Z,219.27
2023-05-21T02:14:05.715Z,456.38
2023-05-21T02:15:10.967Z,934.13
2023-05-21T02:16:15.058Z,916.20
2023-05-21T02:17:20.051Z,704.28
2023-05-21T02:18:22.552Z,663.75
2023-05-21T02:19:27.466Z,153.13
2023-05-21T02:20:30.443Z,181.20
2023-05-21T02:21:35.271Z,143.05
2023-05-21T02:22:37.856Z,144.43
2023-05-21T02:23:42.789Z,112.88
2023-05-21T02:24:45.642Z,159.85
2023-05-21T02:25:53.135Z,126.25
2023-05-21T02:26:55.241Z,104.82
2023-05-21T02:27:59.972Z,144.57
2023-05-21T02:29:02.077Z,122.70
2023-05-21T02:30:08.973Z,111.18
2023-05-21T02:31:11.801Z,114.00
2023-05-21T02:32:17.130Z,119.40
2023-05-21T02:33:20.445Z,113.70
2023-05-21T02:34:26.166Z,139.88
2023-05-21T02:35:28.463Z,144.55
2023-05-21T02:36:33.494Z,138.45
2023-05-21T02:37:36.669Z,147.88
2023-05-21T02:38:43.895Z,119.40
2023-05-21T02:39:46.147Z,120.07
2023-05-21T02:40:53.860Z,115.80
2023-05-21T02:41:56.079Z,124.97
2023-05-21T02:43:00.783Z,118.72
2023-05-21T02:44:02.882Z,117.30
2023-05-21T02:45:08.464Z,119.25
2023-05-21T02:46:10.793Z,176.82
2023-05-21T02:47:15.546Z,125.30
2023-05-21T02:48:17.660Z,125.25
2023-05-21T02:49:22.368Z,164.98
2023-05-21T02:50:24.527Z,149.25
2023-05-21T02:51:29.210Z,136.85
2023-05-21T02:52:31.488Z,171.07
2023-05-21T02:53:36.189Z,147.00
2023-05-21T02:54:38.258Z,148.93
2023-05-21T02:55:42.992Z,264.23
2023-05-21T02:56:47.661Z,126.75
2023-05-21T02:57:52.412Z,134.68
2023-05-21T02:58:54.759Z,128.63
2023-05-21T02:59:59.451Z,146.27
2023-05-21T03:01:01.836Z,143.77
2023-05-21T03:02:06.585Z,137.98
2023-05-21T03:03:08.867Z,132.32
2023-05-21T03:04:13.599Z,139.50
2023-05-21T03:05:15.741Z,136.30
2023-05-21T03:06:20.471Z,149.07
2023-05-21T03:07:22.677Z,166.00
2023-05-21T03:08:27.699Z,163.93
2023-05-21T03:09:29.751Z,148.75
2023-05-21T03:10:34.482Z,149.88
2023-05-21T03:11:38.946Z,134.00
2023-05-21T03:12:46.196Z,156.27
2023-05-21T03:13:48.391Z,165.90
2023-05-21T03:14:54.126Z,143.45
2023-05-21T03:15:56.657Z,138.77
2023-05-21T03:17:01.400Z,150.45
2023-05-21T03:18:06.396Z,113.88
2023-05-21T03:19:08.711Z,137.85
2023-05-21T03:20:17.315Z,150.85
2023-05-21T03:21:22.833Z,114.57
2023-05-21T03:22:27.512Z,181.40
2023-05-21T03:23:29.602Z,153.18
2023-05-21T03:24:34.472Z,133.32
2023-05-21T03:25:37.238Z,155.05
2023-05-21T03:26:42.051Z,106.35
2023-05-21T03:27:46.698Z,106.00
2023-05-21T03:28:51.357Z,159.52
2023-05-21T03:29:55.274Z,127.35
2023-05-21T03:31:00.139Z,96.78
2023-05-21T03:32:02.756Z,132.90
2023-05-21T03:33:07.860Z,117.97
2023-05-21T03:34:10.019Z,117.07
2023-05-21T03:35:14.740Z,152.60
2023-05-21T03:36:19.767Z,118.15
2023-05-21T03:37:21.921Z,122.45
2023-05-21T03:38:26.561Z,158.20
2023-05-21T03:39:28.731Z,139.38
2023-05-21T03:40:33.402Z,130.45
2023-05-21T03:41:35.558Z,149.00
2023-05-21T03:42:40.244Z,133.70
2023-05-21T03:43:44.945Z,109.00
2023-05-21T03:44:49.842Z,116.07
2023-05-21T03:45:52.223Z,114.50
2023-05-21T03:46:56.942Z,124.97
2023-05-21T03:47:59.192Z,121.38
2023-05-21T03:49:03.979Z,112.80
2023-05-21T03:50:07.867Z,131.90
2023-05-21T03:51:13.455Z,108.82
2023-05-21T03:52:15.689Z,117.28
2023-05-21T03:53:20.604Z,120.45
2023-05-21T03:54:22.682Z,152.35
2023-05-21T03:55:27.358Z,129.40
2023-05-21T03:56:29.532Z,132.98
2023-05-21T03:57:34.230Z,138.65
2023-05-21T03:58:36.983Z,136.38
2023-05-21T03:59:44.244Z,144.23
2023-05-21T04:00:46.330Z,119.10
2023-05-21T04:01:52.367Z,118.03
2023-05-21T04:02:54.745Z,131.68
2023-05-21T04:03:59.593Z,117.65
2023-05-21T04:05:01.808Z,130.27
2023-05-21T04:06:07.089Z,125.78
2023-05-21T04:07:14.678Z,111.47
2023-05-21T04:08:19.480Z,121.75
2023-05-21T04:09:21.717Z,160.32
2023-05-21T04:10:27.162Z,199.60
2023-05-21T04:11:29.231Z,148.38
2023-05-21T04:12:33.947Z,175.20
2023-05-21T04:13:36.492Z,196.40
2023-05-21T04:14:41.236Z,128.40
2023-05-21T04:15:46.981Z,147.98
2023-05-21T04:16:51.980Z,147.63
2023-05-21T04:17:54.889Z,126.72
2023-05-21T04:18:59.829Z,180.30
2023-05-21T04:20:02.120Z,123.65
2023-05-21T04:21:07.738Z,130.65
2023-05-21T04:22:10.934Z,133.02
2023-05-21T04:23:15.617Z,133.90
2023-05-21T04:24:17.827Z,109.60
2023-05-21T04:25:23.477Z,107.18
2023-05-21T04:26:25.572Z,222.13
2023-05-21T04:27:30.279Z,139.35
2023-05-21T04:28:33.419Z,152.65
2023-05-21T04:29:42.920Z,173.25
2023-05-21T04:30:48.032Z,108.85
2023-05-21T04:31:52.920Z,132.45
2023-05-21T04:32:55.596Z,142.93
2023-05-21T04:34:00.312Z,102.65
2023-05-21T04:35:02.459Z,122.28
2023-05-21T04:36:10.041Z,117.40
2023-05-21T04:37:12.451Z,105.47
2023-05-21T04:38:19.962Z,129.25
2023-05-21T04:39:22.145Z,110.05
2023-05-21T04:40:27.188Z,121.75
2023-05-21T04:41:29.370Z,130.98
2023-05-21T04:42:34.235Z,158.43
2023-05-21T04:43:37.034Z,129.98
2023-05-21T04:44:44.682Z,104.55
2023-05-21T04:45:49.808Z,101.95
2023-05-21T04:46:55.020Z,117.72
2023-05-21T04:48:00.817Z,102.85
2023-05-21T04:49:05.832Z,98.85
2023-05-21T04:50:09.166Z,99.70
2023-05-21T04:51:15.237Z,122.88
2023-05-21T04:52:17.696Z,187.27
2023-05-21T04:53:22.410Z,114.35
2023-05-21T04:54:24.750Z,128.52
2023-05-21T04:55:29.896Z,168.90
2023-05-21T04:56:32.107Z,158.93
2023-05-21T04:57:36.874Z,154.77
2023-05-21T04:58:40.793Z,103.35
2023-05-21T04:59:45.610Z,146.30
2023-05-21T05:00:52.120Z,140.63
2023-05-21T05:01:56.912Z,168.82
2023-05-21T05:02:59.152Z,259.92
2023-05-21T05:04:04.529Z,143.80
2023-05-21T05:05:07.182Z,162.10
2023-05-21T05:06:11.858Z,124.07
2023-05-21T05:07:13.998Z,139.57
2023-05-21T05:08:19.024Z,136.85
2023-05-21T05:09:21.759Z,147.10
2023-05-21T05:10:26.486Z,123.50
2023-05-21T05:11:28.617Z,226.32
2023-05-21T05:12:33.269Z,182.18
2023-05-21T05:13:35.536Z,126.20
2023-05-21T05:14:40.201Z,135.73
2023-05-21T05:15:45.295Z,119.45
2023-05-21T05:16:50.969Z,111.15
2023-05-21T05:17:56.803Z,144.52
2023-05-21T05:18:59.032Z,107.75
2023-05-21T05:20:04.018Z,101.88
2023-05-21T05:21:06.340Z,105.03
2023-05-21T05:22:13.349Z,168.10
2023-05-21T05:23:15.782Z,89.30
2023-05-21T05:24:20.462Z,95.35
2023-05-21T05:25:22.539Z,154.32
2023-05-21T05:26:27.266Z,136.93
2023-05-21T05:27:29.350Z,119.93
2023-05-21T05:28:34.038Z,164.07
2023-05-21T05:29:36.062Z,137.82
2023-05-21T05:30:40.769Z,110.72
2023-05-21T05:31:42.960Z,134.90
2023-05-21T05:32:50.272Z,100.32
2023-05-21T05:33:52.392Z,95.72
2023-05-21T05:34:57.159Z,94.63
2023-05-21T05:35:59.248Z,121.13
2023-05-21T05:37:04.486Z,101.75
2023-05-21T05:38:09.203Z,101.93
2023-05-21T05:39:13.994Z,105.53
2023-05-21T05:40:16.351Z,113.50
2023-05-21T05:41:21.213Z,102.00
2023-05-21T05:42:23.354Z,121.70
2023-05-21T05:43:28.377Z,153.05
2023-05-21T05:44:30.505Z,130.13
2023-05-21T05:45:36.455Z,142.65
2023-05-21T05:46:39.015Z,166.18
2023-05-21T05:47:43.993Z,113.60
2023-05-21T05:48:48.762Z,102.07
2023-05-21T05:49:53.515Z,99.93
2023-05-21T05:50:56.249Z,96.60
2023-05-21T05:52:01.351Z,96.55
2023-05-21T05:53:03.526Z,100.93
2023-05-21T05:54:08.194Z,109.05
2023-05-21T05:55:12.153Z,96.90
2023-05-21T05:56:17.338Z,109.55
2023-05-21T05:57:19.514Z,93.57
2023-05-21T05:58:24.209Z,112.65
2023-05-21T05:59:26.344Z,124.10
2023-05-21T06:00:31.080Z,168.32
2023-05-21T06:01:33.210Z,160.48
2023-05-21T06:02:37.978Z,126.20
2023-05-21T06:03:40.199Z,116.53
2023-05-21T06:04:47.706Z,138.10
2023-05-21T06:05:50.282Z,106.80
2023-05-21T06:06:55.125Z,165.70
2023-05-21T06:07:57.208Z,95.38
2023-05-21T06:09:01.874Z,108.97
2023-05-21T06:10:05.679Z,126.10
2023-05-21T06:11:11.185Z,95.50
2023-05-21T06:12:16.136Z,107.85
2023-05-21T06:13:20.823Z,160.30
2023-05-21T06:14:22.962Z,179.43
2023-05-21T06:15:27.637Z,140.93
2023-05-21T06:16:31.692Z,120.80
2023-05-21T06:17:36.639Z,139.25
2023-05-21T06:18:39.110Z,139.55
2023-05-21T06:19:45.420Z,111.68
2023-05-21T06:20:50.136Z,122.20
2023-05-21T06:21:54.857Z,112.93
2023-05-21T06:22:56.957Z,125.57
2023-05-21T06:24:01.657Z,162.13
2023-05-21T06:25:04.103Z,108.82
2023-05-21T06:26:09.255Z,126.93
2023-05-21T06:27:11.381Z,115.13
2023-05-21T06:28:16.066Z,106.50
2023-05-21T06:29:18.422Z,131.68
2023-05-21T06:30:23.263Z,149.60
2023-05-21T06:31:25.358Z,130.52
2023-05-21T06:32:30.116Z,121.90
2023-05-21T06:33:32.311Z,132.32
2023-05-21T06:34:37.141Z,124.97
2023-05-21T06:35:40.448Z,132.75
2023-05-21T06:36:47.910Z,115.78
2023-05-21T06:37:50.119Z,102.70
2023-05-21T06:38:54.815Z,103.70
2023-05-21T06:39:56.899Z,124.40
2023-05-21T06:41:01.772Z,101.15
2023-05-21T06:42:04.077Z,100.00
2023-05-21T06:43:08.909Z,141.88
2023-05-21T06:44:11.282Z,168.63
2023-05-21T06:45:15.973Z,120.20
2023-05-21T06:46:18.192Z,132.50
2023-05-21T06:47:23.042Z,92.55
2023-05-21T06:48:25.207Z,139.20
2023-05-21T06:49:29.861Z,126.38
2023-05-21T06:50:32.249Z,121.80
2023-05-21T06:51:37.040Z,160.68
2023-05-21T06:52:41.744Z,108.90
2023-05-21T06:53:46.456Z,92.20
2023-05-21T06:54:48.572Z,111.10
2023-05-21T06:55:54.381Z,95.30
2023-05-21T06:56:56.472Z,94.30
2023-05-21T06:58:01.573Z,152.10
2023-05-21T06:59:03.765Z,91.25
2023-05-21T07:00:09.738Z,100.55
2023-05-21T07:01:12.087Z,114.78
2023-05-21T07:02:17.148Z,108.28
2023-05-21T07:03:19.425Z,95.00
2023-05-21T07:04:24.250Z,114.57
2023-05-21T07:05:26.392Z,118.75
2023-05-21T07:06:31.093Z,134.00
2023-05-21T07:07:35.009Z,146.88
2023-05-21T07:08:42.282Z,110.97
2023-05-21T07:09:44.381Z,92.18
2023-05-21T07:10:49.151Z,97.30
2023-05-21T07:11:53.181Z,91.63
2023-05-21T07:12:57.853Z,117.28
2023-05-21T07:14:01.026Z,164.63
2023-05-21T07:15:05.841Z,94.75
2023-05-21T07:16:08.342Z,105.40
2023-05-21T07:17:13.136Z,98.00
2023-05-21T07:18:18.002Z,147.50
2023-05-21T07:19:20.142Z,106.88
2023-05-21T07:20:24.848Z,104.25
2023-05-21T07:21:26.958Z,153.70
2023-05-21T07:22:31.711Z,148.55
2023-05-21T07:23:33.857Z,135.32
2023-05-21T07:24:41.216Z,164.40
2023-05-21T07:25:43.377Z,121.82
2023-05-21T07:26:48.051Z,114.85
2023-05-21T07:27:50.285Z,118.70
2023-05-21T07:28:55.102Z,156.15
2023-05-21T07:29:57.271Z,113.68
2023-05-21T07:31:02.037Z,99.55
2023-05-21T07:32:04.598Z,118.72
2023-05-21T07:33:09.442Z,167.20
2023-05-21T07:34:14.196Z,104.93
2023-05-21T07:35:16.629Z,133.27
2023-05-21T07:36:21.333Z,108.47
2023-05-21T07:37:23.499Z,110.53
2023-05-21T07:38:28.307Z,145.25
2023-05-21T07:39:30.443Z,141.18
2023-05-21T07:40:37.904Z,138.93
2023-05-21T07:41:40.079Z,174.73
2023-05-21T07:42:44.726Z,115.75
2023-05-21T07:43:49.449Z,138.45
2023-05-21T07:44:51.730Z,137.43
2023-05-21T07:45:56.413Z,110.15
2023-05-21T07:46:58.752Z,174.60
2023-05-21T07:48:03.526Z,138.00
2023-05-21T07:49:05.640Z,120.45
2023-05-21T07:50:11.000Z,132.85
2023-05-21T07:51:15.874Z,154.77
2023-05-21T07:52:20.782Z,138.65
2023-05-21T07:53:22.994Z,195.50
2023-05-21T07:54:27.672Z,155.50
2023-05-21T07:55:29.759Z,184.05
2023-05-21T07:56:37.279Z,158.88
2023-05-21T07:57:40.610Z,151.88
2023-05-21T07:58:46.130Z,189.25
2023-05-21T07:59:48.281Z,134.68
2023-05-21T08:00:53.380Z,118.72
2023-05-21T08:01:55.757Z,162.55
2023-05-21T08:03:00.568Z,148.27
2023-05-21T08:04:06.232Z,129.57
2023-05-21T08:05:12.361Z,147.30
2023-05-21T08:06:17.093Z,122.20
2023-05-21T08:07:20.056Z,168.82
2023-05-21T08:08:24.896Z,131.57
2023-05-21T08:09:27.065Z,174.35
2023-05-21T08:10:31.987Z,245.68
2023-05-21T08:11:36.744Z,219.15
2023-05-21T08:12:41.486Z,186.25
2023-05-21T08:13:43.621Z,196.73
2023-05-21T08:14:48.552Z,164.13
2023-05-21T08:15:53.148Z,174.90
2023-05-21T08:16:58.704Z,292.00
2023-05-21T08:18:00.842Z,165.07
2023-05-21T08:19:05.789Z,169.43
2023-05-21T08:20:09.161Z,274.20
2023-05-21T08:21:13.977Z,147.25
2023-05-21T08:22:16.125Z,228.73
2023-05-21T08:23:20.969Z,201.40
2023-05-21T08:24:23.766Z,150.45
2023-05-21T08:25:28.452Z,171.73
2023-05-21T08:26:31.282Z,184.68
2023-05-21T08:27:38.566Z,227.38
2023-05-21T08:28:40.701Z,169.80
2023-05-21T08:29:46.157Z,156.63
2023-05-21T08:30:48.298Z,246.98
2023-05-21T08:31:53.095Z,173.88
2023-05-21T08:32:55.608Z,170.95
2023-05-21T08:34:00.387Z,214.32
2023-05-21T08:35:02.546Z,179.63
2023-05-21T08:36:08.395Z,152.73
2023-05-21T08:37:10.612Z,241.27
2023-05-21T08:38:17.059Z,189.77
2023-05-21T08:39:19.168Z,170.70
2023-05-21T08:40:24.060Z,213.15
2023-05-21T08:41:27.223Z,327.00
2023-05-21T08:42:46.430Z,193.00
2023-05-21T08:43:58.689Z,182.60
2023-05-21T08:45:01.270Z,162.70
2023-05-21T08:46:07.482Z,187.40
2023-05-21T08:47:11.351Z,200.80
2023-05-21T08:48:19.720Z,150.82
2023-05-21T08:49:27.458Z,170.50
2023-05-21T08:50:34.307Z,188.73
2023-05-21T08:51:36.561Z,207.55
2023-05-21T08:52:41.433Z,217.35
2023-05-21T08:53:47.240Z,150.73
2023-05-21T08:54:51.418Z,206.30
2023-05-21T08:55:57.677Z,152.88
2023-05-21T08:57:02.250Z,146.68
2023-05-21T08:58:07.813Z,202.65
2023-05-21T08:59:13.226Z,166.55
2023-05-21T09:00:20.946Z,168.50
2023-05-21T09:01:25.630Z,178.57
2023-05-21T09:02:32.748Z,213.77
2023-05-21T09:03:39.556Z,171.65
2023-05-21T09:04:49.444Z,245.57
2023-05-21T09:05:55.355Z,239.60
2023-05-21T09:06:58.258Z,182.68
2023-05-21T09:08:09.526Z,251.95
2023-05-21T09:09:18.108Z,153.68
2023-05-21T09:10:29.033Z,188.30
2023-05-21T09:11:31.601Z,188.73
2023-05-21T09:12:36.429Z,170.75
2023-05-21T09:13:39.200Z,218.13
2023-05-21T09:14:47.003Z,204.35
2023-05-21T09:15:49.428Z,199.43
2023-05-21T09:16:54.260Z,191.70
2023-05-21T09:17:56.877Z,269.48
2023-05-21T09:19:04.636Z,268.27
2023-05-21T09:20:12.584Z,273.52
2023-05-21T09:21:27.573Z,243.80
2023-05-21T09:22:29.761Z,339.25
2023-05-21T09:23:35.871Z,357.38
2023-05-21T09:24:38.031Z,356.65
2023-05-21T09:25:42.768Z,312.35
2023-05-21T09:26:44.949Z,346.60
2023-05-21T09:27:49.649Z,268.02
2023-05-21T09:28:52.473Z,287.23
2023-05-21T09:30:00.357Z,339.23
2023-05-21T09:31:04.032Z,274.10
2023-05-21T09:32:13.181Z,268.02
2023-05-21T09:33:25.289Z,320.85
2023-05-21T09:34:30.912Z,247.82
2023-05-21T09:35:38.269Z,275.27
2023-05-21T09:36:40.393Z,442.73
2023-05-21T09:37:46.330Z,408.02
2023-05-21T09:38:48.783Z,893.33
2023-05-21T09:39:53.538Z,708.90
2023-05-21T09:40:59.256Z,407.98
2023-05-21T09:42:01.468Z,1239.05
2023-05-21T09:43:06.239Z,1124.13
2023-05-21T09:44:08.567Z,244.52
2023-05-21T09:45:20.294Z,262.20
2023-05-21T09:46:26.572Z,1231.78
2023-05-21T09:47:31.274Z,537.28
2023-05-21T09:48:34.898Z,1173.95
2023-05-21T09:49:40.941Z,1159.15
2023-05-21T09:50:43.063Z,1162.28
2023-05-21T09:51:48.004Z,194.32
2023-05-21T09:52:53.162Z,277.63
2023-05-21T09:54:00.108Z,197.73
2023-05-21T09:55:03.527Z,182.75
2023-05-21T09:56:09.326Z,248.10
2023-05-21T09:57:14.111Z,212.70
2023-05-21T09:58:18.933Z,291.20
2023-05-21T09:59:21.511Z,226.85
2023-05-21T10:00:31.586Z,223.23
2023-05-21T10:01:37.689Z,292.85
2023-05-21T10:02:44.506Z,316.02
2023-05-21T10:03:53.226Z,250.32
2023-05-21T10:04:57.352Z,259.45
2023-05-21T10:06:03.598Z,257.70
2023-05-21T10:07:05.964Z,249.77
2023-05-21T10:08:14.525Z,275.02
2023-05-21T10:09:19.581Z,294.30
2023-05-21T10:10:24.894Z,219.57
2023-05-21T10:11:30.938Z,230.82
2023-05-21T10:12:36.679Z,284.35
2023-05-21T10:13:47.465Z,252.73
2023-05-21T10:14:54.674Z,214.23
2023-05-21T10:16:05.610Z,278.73
2023-05-21T10:17:08.152Z,204.40
2023-05-21T10:18:14.269Z,224.73
2023-05-21T10:19:17.180Z,317.15
2023-05-21T10:20:22.889Z,218.68
2023-05-21T10:21:26.381Z,238.52
2023-05-21T10:22:32.098Z,349.13
2023-05-21T10:23:36.588Z,283.13
2023-05-21T10:24:43.046Z,305.15
2023-05-21T10:25:46.318Z,329.65
2023-05-21T10:26:51.793Z,259.70
2023-05-21T10:27:56.137Z,249.18
2023-05-21T10:29:00.996Z,268.08
2023-05-21T10:30:06.084Z,265.83
2023-05-21T10:31:14.254Z,195.52
2023-05-21T10:32:17.155Z,252.52
2023-05-21T10:33:25.949Z,220.75
2023-05-21T10:34:29.289Z,287.83
2023-05-21T10:35:35.400Z,496.50
2023-05-21T10:36:38.764Z,626.78
2023-05-21T10:37:46.540Z,1102.82
2023-05-21T10:38:48.831Z,1092.63
2023-05-21T10:39:53.732Z,1279.80
2023-05-21T10:40:56.429Z,1292.07
2023-05-21T10:42:11.351Z,1292.63
2023-05-21T10:43:37.151Z,1311.50
2023-05-21T10:44:56.584Z,298.67
2023-05-21T10:46:28.429Z,533.95
2023-05-21T10:48:05.495Z,1185.90
2023-05-21T10:49:38.165Z,441.77
2023-05-21T10:51:13.229Z,251.55
2023-05-21T10:52:33.766Z,320.70
2023-05-21T10:53:48.450Z,265.83
2023-05-21T10:55:14.142Z,314.77
2023-05-21T10:56:23.446Z,678.92
2023-05-21T10:57:47.511Z,1305.00
2023-05-21T10:59:08.300Z,1314.32
2023-05-21T11:00:15.348Z,1279.32
2023-05-21T11:01:23.381Z,1283.32
2023-05-21T11:02:27.691Z,1296.22
2023-05-21T11:03:36.669Z,1266.38
2023-05-21T11:04:43.520Z,1269.88
2023-05-21T11:05:55.400Z,1291.90
2023-05-21T11:06:59.287Z,1133.40
2023-05-21T11:08:04.561Z,1189.95
2023-05-21T11:09:15.556Z,890.50
2023-05-21T11:10:37.985Z,966.78
2023-05-21T11:11:48.736Z,1099.75
2023-05-21T11:13:07.623Z,1108.03
2023-05-21T11:14:39.684Z,1155.75
2023-05-21T11:16:08.096Z,1241.15
2023-05-21T11:17:19.299Z,1068.90
2023-05-21T11:18:21.394Z,1200.25
2023-05-21T11:19:37.547Z,1300.63
2023-05-21T11:20:42.607Z,1054.63
2023-05-21T11:21:53.734Z,1072.18
2023-05-21T11:22:58.482Z,1038.65
2023-05-21T11:24:05.411Z,738.80
2023-05-21T11:25:12.707Z,681.67
2023-05-21T11:26:16.522Z,790.55
2023-05-21T11:27:36.204Z,644.13
2023-05-21T11:28:38.315Z,841.15
2023-05-21T11:29:44.970Z,957.40
2023-05-21T11:31:23.332Z,1031.65
2023-05-21T11:32:31.802Z,1057.28
2023-05-21T11:33:34.162Z,1099.70
2023-05-21T11:34:46.550Z,1100.80
2023-05-21T11:35:59.480Z,821.78
2023-05-21T11:37:30.539Z,986.92
2023-05-21T11:38:35.252Z,1138.60
2023-05-21T11:39:40.486Z,1112.47
2023-05-21T11:40:55.473Z,906.55
2023-05-21T11:42:00.940Z,902.72
2023-05-21T11:43:07.056Z,846.20
2023-05-21T11:44:09.291Z,805.47
2023-05-21T11:45:14.521Z,885.40
2023-05-21T11:46:17.177Z,669.88
2023-05-21T11:47:22.595Z,846.65
2023-05-21T11:48:32.384Z,610.33
2023-05-21T11:49:35.861Z,571.95
2023-05-21T11:50:42.484Z,692.72
2023-05-21T11:51:44.750Z,651.70
2023-05-21T11:52:49.560Z,690.10
2023-05-21T11:53:51.764Z,669.38
2023-05-21T11:54:58.061Z,716.53
2023-05-21T11:56:02.424Z,733.38
2023-05-21T11:57:10.097Z,595.03
2023-05-21T11:58:19.418Z,700.30
2023-05-21T11:59:21.721Z,447.17
2023-05-21T12:00:26.833Z,355.95
2023-05-21T12:01:31.323Z,341.25
2023-05-21T12:02:36.083Z,307.95
2023-05-21T12:03:43.558Z,340.90
2023-05-21T12:04:46.994Z,383.35
2023-05-21T12:05:52.653Z,386.13
2023-05-21T12:06:55.612Z,499.00
2023-05-21T12:08:00.258Z,402.35
2023-05-21T12:09:02.435Z,395.95
2023-05-21T12:10:08.125Z,506.15
2023-05-21T12:11:10.401Z,460.58
2023-05-21T12:12:16.964Z,597.40
2023-05-21T12:13:22.735Z,629.25
2023-05-21T12:14:24.955Z,627.53
2023-05-21T12:15:30.035Z,701.45
2023-05-21T12:16:32.989Z,559.55
2023-05-21T12:17:37.849Z,609.72
2023-05-21T12:18:42.823Z,666.42
2023-05-21T12:19:49.088Z,541.90
2023-05-21T12:20:54.883Z,487.90
2023-05-21T12:21:57.588Z,615.38
2023-05-21T12:23:02.431Z,592.70
2023-05-21T12:24:04.789Z,606.97
2023-05-21T12:25:10.917Z,563.92
2023-05-21T12:26:13.901Z,506.73
2023-05-21T12:27:18.845Z,508.35
2023-05-21T12:28:21.643Z,519.33
2023-05-21T12:29:26.614Z,436.90
2023-05-21T12:30:31.783Z,447.33
2023-05-21T12:31:34.045Z,639.05
2023-05-21T12:32:38.962Z,655.45
2023-05-21T12:33:44.971Z,657.15
2023-05-21T12:34:50.889Z,792.60
2023-05-21T12:35:53.057Z,689.60
2023-05-21T12:36:57.822Z,510.30
2023-05-21T12:38:04.835Z,560.83
2023-05-21T12:39:11.165Z,549.08
2023-05-21T12:40:16.654Z,435.90
2023-05-21T12:41:19.457Z,430.02
2023-05-21T12:42:30.214Z,408.77
2023-05-21T12:43:32.563Z,485.35
2023-05-21T12:44:37.365Z,620.58
2023-05-21T12:45:39.864Z,761.45
2023-05-21T12:46:44.647Z,710.50
2023-05-21T12:47:56.562Z,784.00
2023-05-21T12:49:01.521Z,615.25
2023-05-21T12:50:11.976Z,601.85
2023-05-21T12:51:14.208Z,481.58
2023-05-21T12:52:22.800Z,637.53
2023-05-21T12:53:24.869Z,898.70
2023-05-21T12:54:33.326Z,1071.10
2023-05-21T12:55:36.299Z,1176.30
2023-05-21T12:56:48.168Z,1138.72
2023-05-21T12:57:52.037Z,1345.47
2023-05-21T12:58:57.681Z,1292.85
2023-05-21T13:00:01.195Z,1368.28
2023-05-21T13:01:06.036Z,1325.65
2023-05-21T13:02:08.217Z,1365.13
2023-05-21T13:03:14.432Z,1271.93
2023-05-21T13:04:19.754Z,554.90
2023-05-21T13:05:24.578Z,1052.00
2023-05-21T13:06:26.727Z,965.88
2023-05-21T13:07:33.284Z,966.80
2023-05-21T13:08:36.057Z,1034.63
2023-05-21T13:09:40.775Z,1026.28
2023-05-21T13:10:45.753Z,1052.13
2023-05-21T13:11:47.852Z,1063.90
2023-05-21T13:12:52.627Z,1049.15
2023-05-21T13:13:54.986Z,984.03
2023-05-21T13:15:01.447Z,932.20
2023-05-21T13:16:03.665Z,975.00
2023-05-21T13:17:08.606Z,997.65
2023-05-21T13:18:12.493Z,958.35
2023-05-21T13:19:17.655Z,903.28
2023-05-21T13:20:27.865Z,800.25
2023-05-21T13:21:29.992Z,787.83
2023-05-21T13:22:35.647Z,849.38
2023-05-21T13:23:37.806Z,813.42
2023-05-21T13:24:42.487Z,802.38
2023-05-21T13:25:44.744Z,798.88
2023-05-21T13:26:49.473Z,845.67
2023-05-21T13:27:53.282Z,857.60
2023-05-21T13:28:58.028Z,910.38
2023-05-21T13:30:00.259Z,806.38
2023-05-21T13:31:04.990Z,834.03
2023-05-21T13:32:10.239Z,850.92
2023-05-21T13:33:13.394Z,803.75